sensor_id;sensor_type;location;lat;lon;timestamp;pressure;altitude;pressure_sealevel;temperature;humidity
39949;BME280;29070;48.102;-1.652;2023-02-23T00:02:41;101311.41;;;4.33;74.75
39949;BME280;29070;48.102;-1.652;2023-02-23T00:07:44;101312.75;;;4.27;74.44
39949;BME280;29070;48.102;-1.652;2023-02-23T00:12:44;101311.69;;;4.20;74.63
39949;BME280;29070;48.102;-1.652;2023-02-23T00:17:45;101307.44;;;4.09;74.25
39949;BME280;29070;48.102;-1.652;2023-02-23T00:22:46;101309.50;;;4.06;74.56
39949;BME280;29070;48.102;-1.652;2023-02-23T00:27:47;101303.22;;;3.98;74.30
39949;BME280;29070;48.102;-1.652;2023-02-23T00:32:49;101293.78;;;3.88;74.27
39949;BME280;29070;48.102;-1.652;2023-02-23T00:37:51;101295.03;;;3.84;74.32
39949;BME280;29070;48.102;-1.652;2023-02-23T00:42:52;101311.97;;;3.78;74.50
39949;BME280;29070;48.102;-1.652;2023-02-23T00:47:52;101331.53;;;3.72;74.42
39949;BME280;29070;48.102;-1.652;2023-02-23T00:52:52;101333.44;;;3.70;74.57
39949;BME280;29070;48.102;-1.652;2023-02-23T00:57:58;101322.34;;;3.68;74.74
39949;BME280;29070;48.102;-1.652;2023-02-23T01:02:59;101324.50;;;3.63;75.17
39949;BME280;29070;48.102;-1.652;2023-02-23T01:07:59;101324.81;;;3.60;75.12
39949;BME280;29070;48.102;-1.652;2023-02-23T01:12:59;101332.72;;;3.58;74.69
39949;BME280;29070;48.102;-1.652;2023-02-23T01:18:00;101330.81;;;3.51;75.18
39949;BME280;29070;48.102;-1.652;2023-02-23T01:23:01;101315.34;;;3.49;75.27
39949;BME280;29070;48.102;-1.652;2023-02-23T01:28:02;101305.63;;;3.41;75.14
39949;BME280;29070;48.102;-1.652;2023-02-23T01:33:02;101302.63;;;3.36;75.11
39949;BME280;29070;48.102;-1.652;2023-02-23T01:38:03;101297.16;;;3.30;75.10
39949;BME280;29070;48.102;-1.652;2023-02-23T01:53:17;101301.47;;;3.10;75.34
39949;BME280;29070;48.102;-1.652;2023-02-23T01:58:21;101292.41;;;3.04;75.33
39949;BME280;29070;48.102;-1.652;2023-02-23T02:03:31;101289.25;;;3.00;75.50
39949;BME280;29070;48.102;-1.652;2023-02-23T02:08:34;101270.56;;;2.97;75.24
39949;BME280;29070;48.102;-1.652;2023-02-23T02:13:43;101271.91;;;2.91;75.28
39949;BME280;29070;48.102;-1.652;2023-02-23T02:40:11;101283.28;;;2.69;75.74
39949;BME280;29070;48.102;-1.652;2023-02-23T02:45:34;101278.34;;;2.66;75.60
39949;BME280;29070;48.102;-1.652;2023-02-23T02:50:46;101278.63;;;2.63;75.56
39949;BME280;29070;48.102;-1.652;2023-02-23T02:55:50;101272.59;;;2.62;76.12
39949;BME280;29070;48.102;-1.652;2023-02-23T03:00:52;101271.09;;;2.60;76.13
39949;BME280;29070;48.102;-1.652;2023-02-23T03:06:11;101262.75;;;2.56;76.17
39949;BME280;29070;48.102;-1.652;2023-02-23T03:11:36;101255.78;;;2.47;76.03
39949;BME280;29070;48.102;-1.652;2023-02-23T03:17:16;101255.88;;;2.45;76.27
39949;BME280;29070;48.102;-1.652;2023-02-23T03:22:52;101246.16;;;2.38;75.84
39949;BME280;29070;48.102;-1.652;2023-02-23T03:28:35;101241.25;;;2.35;76.17
39949;BME280;29070;48.102;-1.652;2023-02-23T03:40:05;101225.75;;;2.23;76.27
39949;BME280;29070;48.102;-1.652;2023-02-23T03:45:28;101239.34;;;2.16;75.98
39949;BME280;29070;48.102;-1.652;2023-02-23T03:50:57;101229.63;;;2.08;75.78
39949;BME280;29070;48.102;-1.652;2023-02-23T03:56:20;101241.19;;;2.04;75.83
39949;BME280;29070;48.102;-1.652;2023-02-23T04:01:43;101251.53;;;2.04;76.17
39949;BME280;29070;48.102;-1.652;2023-02-23T04:07:03;101247.19;;;2.04;76.30
39949;BME280;29070;48.102;-1.652;2023-02-23T04:17:50;101239.16;;;2.07;77.31
39949;BME280;29070;48.102;-1.652;2023-02-23T04:22:52;101238.91;;;2.10;76.97
39949;BME280;29070;48.102;-1.652;2023-02-23T04:27:52;101236.88;;;2.14;76.51
39949;BME280;29070;48.102;-1.652;2023-02-23T04:32:53;101219.44;;;2.16;77.09
39949;BME280;29070;48.102;-1.652;2023-02-23T04:37:54;101204.75;;;2.17;76.72
39949;BME280;29070;48.102;-1.652;2023-02-23T04:42:55;101199.00;;;2.13;76.80
39949;BME280;29070;48.102;-1.652;2023-02-23T04:47:56;101225.47;;;2.17;77.09
39949;BME280;29070;48.102;-1.652;2023-02-23T04:52:56;101234.06;;;2.17;77.52
39949;BME280;29070;48.102;-1.652;2023-02-23T04:57:58;101234.16;;;2.16;76.83
39949;BME280;29070;48.102;-1.652;2023-02-23T05:02:59;101239.47;;;2.14;77.24
39949;BME280;29070;48.102;-1.652;2023-02-23T05:08:00;101239.16;;;2.07;77.46
39949;BME280;29070;48.102;-1.652;2023-02-23T05:13:00;101249.66;;;2.06;77.17
39949;BME280;29070;48.102;-1.652;2023-02-23T05:18:01;101245.53;;;2.03;76.81
39949;BME280;29070;48.102;-1.652;2023-02-23T05:23:02;101251.28;;;2.07;77.54
39949;BME280;29070;48.102;-1.652;2023-02-23T05:28:03;101242.59;;;2.08;77.55
39949;BME280;29070;48.102;-1.652;2023-02-23T05:33:03;101244.09;;;2.10;77.57
39949;BME280;29070;48.102;-1.652;2023-02-23T05:38:04;101227.63;;;2.12;77.48
39949;BME280;29070;48.102;-1.652;2023-02-23T05:43:04;101226.53;;;2.14;77.84
39949;BME280;29070;48.102;-1.652;2023-02-23T05:48:06;101222.19;;;2.15;77.73
39949;BME280;29070;48.102;-1.652;2023-02-23T05:53:06;101232.41;;;2.16;78.23
39949;BME280;29070;48.102;-1.652;2023-02-23T05:58:07;101226.97;;;2.19;78.21
39949;BME280;29070;48.102;-1.652;2023-02-23T06:03:07;101218.97;;;2.22;77.76
39949;BME280;29070;48.102;-1.652;2023-02-23T06:08:08;101215.16;;;2.26;77.84
39949;BME280;29070;48.102;-1.652;2023-02-23T06:13:08;101223.59;;;2.28;77.92
39949;BME280;29070;48.102;-1.652;2023-02-23T06:18:09;101219.00;;;2.32;78.28
39949;BME280;29070;48.102;-1.652;2023-02-23T06:23:10;101229.22;;;2.34;78.14
39949;BME280;29070;48.102;-1.652;2023-02-23T06:28:11;101223.13;;;2.35;77.80
39949;BME280;29070;48.102;-1.652;2023-02-23T06:33:11;101223.69;;;2.38;77.90
39949;BME280;29070;48.102;-1.652;2023-02-23T06:38:12;101219.88;;;2.42;78.18
39949;BME280;29070;48.102;-1.652;2023-02-23T06:43:12;101213.59;;;2.45;78.39
39949;BME280;29070;48.102;-1.652;2023-02-23T06:48:12;101205.69;;;2.46;78.01
39949;BME280;29070;48.102;-1.652;2023-02-23T06:53:13;101202.16;;;2.47;77.98
39949;BME280;29070;48.102;-1.652;2023-02-23T06:58:13;101207.09;;;2.51;77.94
39949;BME280;29070;48.102;-1.652;2023-02-23T07:03:14;101207.91;;;2.51;78.44
39949;BME280;29070;48.102;-1.652;2023-02-23T07:08:15;101217.31;;;2.52;78.39
39949;BME280;29070;48.102;-1.652;2023-02-23T07:13:15;101228.38;;;2.54;78.15
39949;BME280;29070;48.102;-1.652;2023-02-23T07:18:16;101226.75;;;2.53;78.37
39949;BME280;29070;48.102;-1.652;2023-02-23T07:23:17;101230.97;;;2.54;78.34
39949;BME280;29070;48.102;-1.652;2023-02-23T07:28:18;101234.25;;;2.56;78.22
39949;BME280;29070;48.102;-1.652;2023-02-23T07:33:18;101248.16;;;2.55;78.33
39949;BME280;29070;48.102;-1.652;2023-02-23T07:38:18;101253.91;;;2.59;78.31
39949;BME280;29070;48.102;-1.652;2023-02-23T07:43:19;101248.34;;;2.63;78.60
39949;BME280;29070;48.102;-1.652;2023-02-23T07:48:23;101247.00;;;2.69;78.48
39949;BME280;29070;48.102;-1.652;2023-02-23T07:53:23;101250.16;;;2.73;78.62
39949;BME280;29070;48.102;-1.652;2023-02-23T07:58:26;101247.31;;;2.76;78.58
39949;BME280;29070;48.102;-1.652;2023-02-23T08:03:27;101243.50;;;2.80;78.78
39949;BME280;29070;48.102;-1.652;2023-02-23T08:08:28;101236.41;;;2.82;78.73
39949;BME280;29070;48.102;-1.652;2023-02-23T08:13:28;101248.84;;;2.88;78.45
39949;BME280;29070;48.102;-1.652;2023-02-23T08:18:31;101237.13;;;2.94;78.56
39949;BME280;29070;48.102;-1.652;2023-02-23T08:23:32;101246.16;;;2.99;78.83
39949;BME280;29070;48.102;-1.652;2023-02-23T08:28:33;101255.03;;;3.07;78.66
39949;BME280;29070;48.102;-1.652;2023-02-23T08:33:33;101262.28;;;3.13;79.03
39949;BME280;29070;48.102;-1.652;2023-02-23T08:38:34;101268.56;;;3.20;78.94
39949;BME280;29070;48.102;-1.652;2023-02-23T08:43:38;101281.03;;;3.26;79.04
39949;BME280;29070;48.102;-1.652;2023-02-23T08:48:38;101289.22;;;3.31;79.21
39949;BME280;29070;48.102;-1.652;2023-02-23T08:53:39;101285.28;;;3.37;79.12
39949;BME280;29070;48.102;-1.652;2023-02-23T08:58:41;101287.19;;;3.44;79.13
39949;BME280;29070;48.102;-1.652;2023-02-23T09:03:42;101285.56;;;3.53;79.17
39949;BME280;29070;48.102;-1.652;2023-02-23T09:08:42;101277.66;;;3.65;78.92
39949;BME280;29070;48.102;-1.652;2023-02-23T09:13:43;101285.88;;;3.79;79.37
39949;BME280;29070;48.102;-1.652;2023-02-23T09:18:44;101285.16;;;3.97;79.38
39949;BME280;29070;48.102;-1.652;2023-02-23T09:23:44;101299.13;;;4.15;79.53
39949;BME280;29070;48.102;-1.652;2023-02-23T09:28:47;101302.91;;;4.31;79.55
39949;BME280;29070;48.102;-1.652;2023-02-23T09:33:48;101302.47;;;4.45;79.63
39949;BME280;29070;48.102;-1.652;2023-02-23T09:38:51;101300.13;;;4.62;79.63
39949;BME280;29070;48.102;-1.652;2023-02-23T09:49:02;101306.41;;;4.69;79.16
39949;BME280;29070;48.102;-1.652;2023-02-23T09:54:04;101300.91;;;4.72;78.93
39949;BME280;29070;48.102;-1.652;2023-02-23T09:59:15;101303.50;;;4.82;79.03
39949;BME280;29070;48.102;-1.652;2023-02-23T10:14:34;101293.06;;;5.19;79.17
39949;BME280;29070;48.102;-1.652;2023-02-23T10:20:03;101290.91;;;5.32;79.05
39949;BME280;29070;48.102;-1.652;2023-02-23T10:25:11;101286.84;;;5.48;78.74
39949;BME280;29070;48.102;-1.652;2023-02-23T10:30:24;101290.03;;;5.60;78.65
39949;BME280;29070;48.102;-1.652;2023-02-23T10:35:27;101280.38;;;5.70;78.91
39949;BME280;29070;48.102;-1.652;2023-02-23T10:40:31;101287.44;;;5.78;78.59
39949;BME280;29070;48.102;-1.652;2023-02-23T10:45:38;101290.50;;;5.91;78.73
39949;BME280;29070;48.102;-1.652;2023-02-23T10:50:41;101277.19;;;5.94;78.64
39949;BME280;29070;48.102;-1.652;2023-02-23T10:55:44;101279.88;;;6.02;78.82
39949;BME280;29070;48.102;-1.652;2023-02-23T11:01:01;101292.16;;;6.10;78.72
39949;BME280;29070;48.102;-1.652;2023-02-23T11:06:02;101290.91;;;6.22;78.55
39949;BME280;29070;48.102;-1.652;2023-02-23T11:16:10;101284.66;;;6.33;78.08
39949;BME280;29070;48.102;-1.652;2023-02-23T11:21:17;101284.72;;;6.41;78.23
39949;BME280;29070;48.102;-1.652;2023-02-23T11:26:35;101278.81;;;6.39;78.13
39949;BME280;29070;48.102;-1.652;2023-02-23T11:31:36;101287.22;;;6.51;78.13
39949;BME280;29070;48.102;-1.652;2023-02-23T11:36:37;101283.69;;;6.60;78.08
39949;BME280;29070;48.102;-1.652;2023-02-23T11:41:37;101273.44;;;6.67;78.16
39949;BME280;29070;48.102;-1.652;2023-02-23T11:46:37;101264.50;;;6.78;78.12
39949;BME280;29070;48.102;-1.652;2023-02-23T11:51:40;101240.13;;;6.87;78.01
39949;BME280;29070;48.102;-1.652;2023-02-23T11:56:47;101232.44;;;6.94;77.93
39949;BME280;29070;48.102;-1.652;2023-02-23T12:12:59;101213.91;;;7.13;77.70
39949;BME280;29070;48.102;-1.652;2023-02-23T12:18:10;101197.63;;;7.28;77.90
39949;BME280;29070;48.102;-1.652;2023-02-23T12:23:23;101186.72;;;7.40;77.77
39949;BME280;29070;48.102;-1.652;2023-02-23T12:28:43;101180.34;;;7.51;77.80
39949;BME280;29070;48.102;-1.652;2023-02-23T12:33:50;101173.97;;;7.54;77.51
39949;BME280;29070;48.102;-1.652;2023-02-23T12:43:57;101172.16;;;7.54;77.25
39949;BME280;29070;48.102;-1.652;2023-02-23T12:49:18;101176.44;;;7.55;77.29
39949;BME280;29070;48.102;-1.652;2023-02-23T12:54:21;101170.88;;;7.58;77.33
39949;BME280;29070;48.102;-1.652;2023-02-23T13:10:04;101162.38;;;7.64;76.96
39949;BME280;29070;48.102;-1.652;2023-02-23T13:30:48;101157.13;;;7.89;76.74
39949;BME280;29070;48.102;-1.652;2023-02-23T13:35:48;101155.47;;;7.96;76.68
39949;BME280;29070;48.102;-1.652;2023-02-23T13:41:01;101144.34;;;8.02;76.58
39949;BME280;29070;48.102;-1.652;2023-02-23T13:51:34;101134.25;;;7.99;76.31
39949;BME280;29070;48.102;-1.652;2023-02-23T13:56:48;101128.19;;;7.99;76.52
39949;BME280;29070;48.102;-1.652;2023-02-23T14:01:50;101139.13;;;8.02;76.50
39949;BME280;29070;48.102;-1.652;2023-02-23T14:07:22;101121.50;;;7.88;76.10
39949;BME280;29070;48.102;-1.652;2023-02-23T14:12:33;101122.50;;;7.87;76.25
39949;BME280;29070;48.102;-1.652;2023-02-23T14:22:34;101117.25;;;7.95;76.23
39949;BME280;29070;48.102;-1.652;2023-02-23T14:27:42;101108.75;;;7.93;76.26
39949;BME280;29070;48.102;-1.652;2023-02-23T14:32:48;101115.28;;;7.97;76.24
39949;BME280;29070;48.102;-1.652;2023-02-23T14:38:00;101116.28;;;7.96;76.41
39949;BME280;29070;48.102;-1.652;2023-02-23T14:43:02;101115.63;;;7.94;76.56
39949;BME280;29070;48.102;-1.652;2023-02-23T14:48:09;101106.31;;;7.92;76.50
39949;BME280;29070;48.102;-1.652;2023-02-23T14:53:19;101104.22;;;7.87;76.38
39949;BME280;29070;48.102;-1.652;2023-02-23T14:58:31;101098.03;;;7.80;76.72
39949;BME280;29070;48.102;-1.652;2023-02-23T15:03:34;101093.78;;;7.71;76.53
39949;BME280;29070;48.102;-1.652;2023-02-23T15:08:39;101092.81;;;7.63;76.86
39949;BME280;29070;48.102;-1.652;2023-02-23T15:13:47;101098.38;;;7.60;76.51
39949;BME280;29070;48.102;-1.652;2023-02-23T15:18:49;101085.00;;;7.55;76.40
39949;BME280;29070;48.102;-1.652;2023-02-23T15:23:58;101076.38;;;7.47;77.06
39949;BME280;29070;48.102;-1.652;2023-02-23T15:29:17;101072.94;;;7.46;76.69
39949;BME280;29070;48.102;-1.652;2023-02-23T15:34:28;101065.28;;;7.36;76.62
39949;BME280;29070;48.102;-1.652;2023-02-23T15:39:50;101072.47;;;7.34;76.33
39949;BME280;29070;48.102;-1.652;2023-02-23T15:44:58;101059.88;;;7.30;76.26
39949;BME280;29070;48.102;-1.652;2023-02-23T15:50:03;101067.72;;;7.30;76.77
39949;BME280;29070;48.102;-1.652;2023-02-23T15:55:08;101065.94;;;7.30;76.87
39949;BME280;29070;48.102;-1.652;2023-02-23T16:00:39;101069.34;;;7.31;77.07
39949;BME280;29070;48.102;-1.652;2023-02-23T16:05:58;101074.59;;;7.31;77.32
39949;BME280;29070;48.102;-1.652;2023-02-23T16:11:14;101072.28;;;7.28;77.28
39949;BME280;29070;48.102;-1.652;2023-02-23T16:16:17;101069.34;;;7.22;77.35
39949;BME280;29070;48.102;-1.652;2023-02-23T16:21:24;101065.28;;;7.20;77.22
39949;BME280;29070;48.102;-1.652;2023-02-23T16:26:28;101059.25;;;7.19;77.71
39949;BME280;29070;48.102;-1.652;2023-02-23T16:36:40;101037.53;;;7.19;78.10
39949;BME280;29070;48.102;-1.652;2023-02-23T16:41:42;101029.53;;;7.20;77.98
39949;BME280;29070;48.102;-1.652;2023-02-23T16:52:05;101029.56;;;7.12;78.34
39949;BME280;29070;48.102;-1.652;2023-02-23T16:57:26;101027.75;;;7.13;78.45
39949;BME280;29070;48.102;-1.652;2023-02-23T17:02:27;101029.06;;;7.17;78.40
39949;BME280;29070;48.102;-1.652;2023-02-23T17:07:28;101025.00;;;7.14;78.55
39949;BME280;29070;48.102;-1.652;2023-02-23T17:12:28;101025.00;;;7.06;79.08
39949;BME280;29070;48.102;-1.652;2023-02-23T17:17:28;101014.72;;;7.04;78.99
39949;BME280;29070;48.102;-1.652;2023-02-23T17:22:30;101020.78;;;7.05;79.17
39949;BME280;29070;48.102;-1.652;2023-02-23T17:27:32;101035.28;;;7.07;79.27
39949;BME280;29070;48.102;-1.652;2023-02-23T17:32:33;101041.78;;;7.12;79.17
39949;BME280;29070;48.102;-1.652;2023-02-23T17:37:34;101046.69;;;7.15;79.09
39949;BME280;29070;48.102;-1.652;2023-02-23T17:42:36;101044.88;;;7.15;79.19
39949;BME280;29070;48.102;-1.652;2023-02-23T17:47:37;101046.53;;;7.16;79.57
39949;BME280;29070;48.102;-1.652;2023-02-23T17:52:40;101050.94;;;7.16;79.56
39949;BME280;29070;48.102;-1.652;2023-02-23T17:57:40;101058.94;;;7.14;79.90
39949;BME280;29070;48.102;-1.652;2023-02-23T18:02:42;101061.22;;;7.17;79.87
39949;BME280;29070;48.102;-1.652;2023-02-23T18:07:43;101066.25;;;7.19;79.74
39949;BME280;29070;48.102;-1.652;2023-02-23T18:12:43;101074.09;;;7.19;79.96
39949;BME280;29070;48.102;-1.652;2023-02-23T18:17:44;101082.09;;;7.25;80.44
39949;BME280;29070;48.102;-1.652;2023-02-23T18:22:44;101083.56;;;7.28;80.58
39949;BME280;29070;48.102;-1.652;2023-02-23T18:27:48;101090.25;;;7.31;80.30
39949;BME280;29070;48.102;-1.652;2023-02-23T18:32:50;101093.34;;;7.34;80.54
39949;BME280;29070;48.102;-1.652;2023-02-23T18:37:51;101100.53;;;7.32;80.44
39949;BME280;29070;48.102;-1.652;2023-02-23T18:42:51;101106.56;;;7.33;80.72
39949;BME280;29070;48.102;-1.652;2023-02-23T18:47:52;101113.28;;;7.35;80.96
39949;BME280;29070;48.102;-1.652;2023-02-23T18:52:54;101109.50;;;7.38;80.89
39949;BME280;29070;48.102;-1.652;2023-02-23T18:57:54;101119.63;;;7.41;80.65
39949;BME280;29070;48.102;-1.652;2023-02-23T19:02:55;101113.75;;;7.39;80.83
39949;BME280;29070;48.102;-1.652;2023-02-23T19:07:56;101111.78;;;7.41;80.95
39949;BME280;29070;48.102;-1.652;2023-02-23T19:12:56;101112.75;;;7.40;81.20
39949;BME280;29070;48.102;-1.652;2023-02-23T19:17:56;101111.16;;;7.39;81.05
39949;BME280;29070;48.102;-1.652;2023-02-23T19:23:03;101098.25;;;7.37;81.01
39949;BME280;29070;48.102;-1.652;2023-02-23T19:28:04;101104.28;;;7.38;80.91
39949;BME280;29070;48.102;-1.652;2023-02-23T19:33:08;101102.66;;;7.37;81.25
39949;BME280;29070;48.102;-1.652;2023-02-23T19:38:09;101104.28;;;7.38;81.00
39949;BME280;29070;48.102;-1.652;2023-02-23T19:43:10;101088.59;;;7.38;81.22
39949;BME280;29070;48.102;-1.652;2023-02-23T19:48:12;101087.81;;;7.37;81.21
39949;BME280;29070;48.102;-1.652;2023-02-23T19:53:15;101082.09;;;7.34;80.98
39949;BME280;29070;48.102;-1.652;2023-02-23T19:58:15;101072.47;;;7.34;81.10
39949;BME280;29070;48.102;-1.652;2023-02-23T20:03:16;101078.50;;;7.35;81.50
39949;BME280;29070;48.102;-1.652;2023-02-23T20:08:19;101084.38;;;7.37;81.47
39949;BME280;29070;48.102;-1.652;2023-02-23T20:13:19;101072.28;;;7.36;81.31
39949;BME280;29070;48.102;-1.652;2023-02-23T20:18:22;101080.78;;;7.38;81.49
39949;BME280;29070;48.102;-1.652;2023-02-23T20:23:24;101081.59;;;7.38;81.05
39949;BME280;29070;48.102;-1.652;2023-02-23T20:28:24;101087.81;;;7.37;81.47
39949;BME280;29070;48.102;-1.652;2023-02-23T20:33:24;101075.56;;;7.38;81.41
39949;BME280;29070;48.102;-1.652;2023-02-23T20:38:25;101079.66;;;7.40;81.62
39949;BME280;29070;48.102;-1.652;2023-02-23T20:43:25;101078.66;;;7.41;81.16
39949;BME280;29070;48.102;-1.652;2023-02-23T20:48:27;101074.22;;;7.42;81.69
39949;BME280;29070;48.102;-1.652;2023-02-23T20:53:28;101075.88;;;7.43;81.35
39949;BME280;29070;48.102;-1.652;2023-02-23T20:58:28;101082.75;;;7.44;81.23
39949;BME280;29070;48.102;-1.652;2023-02-23T21:03:29;101079.13;;;7.45;81.63
39949;BME280;29070;48.102;-1.652;2023-02-23T21:08:29;101083.22;;;7.48;81.35
39949;BME280;29070;48.102;-1.652;2023-02-23T21:13:30;101086.66;;;7.48;81.43
39949;BME280;29070;48.102;-1.652;2023-02-23T21:18:30;101090.88;;;7.49;81.40
39949;BME280;29070;48.102;-1.652;2023-02-23T21:23:31;101084.69;;;7.50;81.33
39949;BME280;29070;48.102;-1.652;2023-02-23T21:28:32;101085.16;;;7.45;81.89
39949;BME280;29070;48.102;-1.652;2023-02-23T21:33:32;101097.09;;;7.48;81.58
39949;BME280;29070;48.102;-1.652;2023-02-23T21:38:33;101098.06;;;7.47;81.52
39949;BME280;29070;48.102;-1.652;2023-02-23T21:43:39;101100.69;;;7.47;81.62
39949;BME280;29070;48.102;-1.652;2023-02-23T21:48:41;101102.47;;;7.47;81.62
39949;BME280;29070;48.102;-1.652;2023-02-23T21:53:42;101107.69;;;7.47;81.50
39949;BME280;29070;48.102;-1.652;2023-02-23T21:58:49;101102.63;;;7.45;81.35
39949;BME280;29070;48.102;-1.652;2023-02-23T22:03:50;101099.22;;;7.44;81.65
39949;BME280;29070;48.102;-1.652;2023-02-23T22:08:50;101104.44;;;7.44;81.59
39949;BME280;29070;48.102;-1.652;2023-02-23T22:13:56;101109.50;;;7.46;81.80
39949;BME280;29070;48.102;-1.652;2023-02-23T22:19:00;101103.44;;;7.45;81.46
39949;BME280;29070;48.102;-1.652;2023-02-23T22:24:03;101105.56;;;7.42;81.76
39949;BME280;29070;48.102;-1.652;2023-02-23T22:29:05;101099.69;;;7.40;81.72
39949;BME280;29070;48.102;-1.652;2023-02-23T22:34:06;101098.41;;;7.36;81.48
39949;BME280;29070;48.102;-1.652;2023-02-23T22:39:06;101099.53;;;7.33;81.41
39949;BME280;29070;48.102;-1.652;2023-02-23T22:44:17;101089.28;;;7.32;81.80
39949;BME280;29070;48.102;-1.652;2023-02-23T22:49:18;101094.81;;;7.29;81.62
39949;BME280;29070;48.102;-1.652;2023-02-23T22:54:19;101099.72;;;7.32;81.66
39949;BME280;29070;48.102;-1.652;2023-02-23T22:59:23;101092.53;;;7.34;81.84
39949;BME280;29070;48.102;-1.652;2023-02-23T23:04:23;101087.00;;;7.37;81.80
39949;BME280;29070;48.102;-1.652;2023-02-23T23:09:24;101083.38;;;7.38;81.69
39949;BME280;29070;48.102;-1.652;2023-02-23T23:14:27;101079.81;;;7.39;81.73
39949;BME280;29070;48.102;-1.652;2023-02-23T23:19:27;101079.47;;;7.42;81.58
39949;BME280;29070;48.102;-1.652;2023-02-23T23:24:28;101080.78;;;7.46;81.76
39949;BME280;29070;48.102;-1.652;2023-02-23T23:29:29;101075.19;;;7.49;81.40
39949;BME280;29070;48.102;-1.652;2023-02-23T23:34:30;101079.78;;;7.55;81.49
39949;BME280;29070;48.102;-1.652;2023-02-23T23:39:32;101078.47;;;7.59;81.48
39949;BME280;29070;48.102;-1.652;2023-02-23T23:44:32;101072.91;;;7.62;81.47
39949;BME280;29070;48.102;-1.652;2023-02-23T23:49:34;101073.22;;;7.68;81.53
39949;BME280;29070;48.102;-1.652;2023-02-23T23:54:38;101076.50;;;7.70;81.58
39949;BME280;29070;48.102;-1.652;2023-02-23T23:59:40;101070.94;;;7.73;81.27
